Time;durP1;ratioP1;P1;durP2;ratioP2;P2;SDS_P1;SDS_P2;PMS_P1;PMS_P2;Temp;Humidity;BMP_temperature;BMP_pressure;BME280_temperature;BME280_humidity;BME280_pressure;Samples;Min_cycle;Max_cycle;Signal;HPM_P1;HPM_P2
2023/12/08 00:01:51;;;;;;;27.03;21.83;;;;;;;;;;4944936;28;20230;-84
2023/12/08 00:04:18;;;;;;;27.90;23.13;;;;;;;;;;4940737;28;20253;-85
2023/12/08 00:06:44;;;;;;;26.77;21.47;;;;;;;;;;4940015;28;20620;-85
2023/12/08 00:09:09;;;;;;;25.57;22.23;;;;;;;;;;4968383;28;20703;-84
2023/12/08 00:11:37;;;;;;;26.70;22.77;;;;;;;;;;4959533;28;20232;-84
2023/12/08 00:14:07;;;;;;;29.13;22.37;;;;;;;;;;4968742;28;20322;-84
2023/12/08 00:16:35;;;;;;;26.90;22.27;;;;;;;;;;4956077;28;20261;-84
2023/12/08 00:19:01;;;;;;;26.53;21.87;;;;;;;;;;4954543;28;20269;-84
2023/12/08 00:21:28;;;;;;;26.00;21.47;;;;;;;;;;4937785;28;20226;-85
2023/12/08 00:23:56;;;;;;;26.13;22.80;;;;;;;;;;4965141;28;20230;-84
2023/12/08 00:26:24;;;;;;;25.47;21.80;;;;;;;;;;4956266;28;20248;-84
2023/12/08 00:28:52;;;;;;;25.43;21.30;;;;;;;;;;4939032;28;20304;-84
2023/12/08 00:31:17;;;;;;;24.63;21.63;;;;;;;;;;4971056;28;20232;-84
2023/12/08 00:33:45;;;;;;;25.00;21.17;;;;;;;;;;4967052;28;20230;-84
2023/12/08 00:36:15;;;;;;;23.53;20.60;;;;;;;;;;4948635;28;20331;-84
2023/12/08 00:38:46;;;;;;;24.83;21.23;;;;;;;;;;4941107;28;20309;-84
2023/12/08 00:41:14;;;;;;;23.50;21.00;;;;;;;;;;4952949;28;20215;-84
2023/12/08 00:43:44;;;;;;;23.93;20.93;;;;;;;;;;4950916;28;20705;-87
2023/12/08 00:46:10;;;;;;;22.80;20.40;;;;;;;;;;4937413;28;20239;-85
2023/12/08 00:48:38;;;;;;;22.50;19.30;;;;;;;;;;4963725;28;20225;-85
2023/12/08 00:51:06;;;;;;;22.13;19.77;;;;;;;;;;4943407;28;20216;-85
2023/12/08 00:53:32;;;;;;;20.50;18.40;;;;;;;;;;4962923;28;20238;-85
2023/12/08 00:56:04;;;;;;;21.60;19.37;;;;;;;;;;4970773;28;20230;-85
2023/12/08 00:58:32;;;;;;;21.47;19.00;;;;;;;;;;4946465;28;20223;-85
2023/12/08 01:01:00;;;;;;;21.63;19.33;;;;;;;;;;4958736;28;20285;-85
2023/12/08 01:03:28;;;;;;;21.57;19.27;;;;;;;;;;4975821;28;20226;-84
2023/12/08 01:05:54;;;;;;;22.20;19.90;;;;;;;;;;4943150;28;20237;-85
2023/12/08 01:08:22;;;;;;;22.37;18.87;;;;;;;;;;4975090;28;20244;-85
2023/12/08 01:10:47;;;;;;;20.70;18.13;;;;;;;;;;4973816;28;20561;-85
2023/12/08 01:13:13;;;;;;;23.60;19.47;;;;;;;;;;4956079;28;20224;-86
2023/12/08 01:15:41;;;;;;;19.80;17.70;;;;;;;;;;4971429;28;20640;-84
2023/12/08 01:18:09;;;;;;;20.77;18.63;;;;;;;;;;4970623;28;20230;-84
2023/12/08 01:20:36;;;;;;;22.77;18.87;;;;;;;;;;4970213;28;20226;-86
2023/12/08 01:23:01;;;;;;;22.07;19.03;;;;;;;;;;4974104;28;20233;-84
2023/12/08 01:25:29;;;;;;;20.63;18.17;;;;;;;;;;4954921;28;20227;-85
2023/12/08 01:27:57;;;;;;;20.03;18.03;;;;;;;;;;4939550;28;20222;-84
2023/12/08 01:30:26;;;;;;;21.97;17.77;;;;;;;;;;4950972;28;20286;-84
2023/12/08 01:32:53;;;;;;;21.57;19.33;;;;;;;;;;4955725;28;20804;-84
2023/12/08 01:35:24;;;;;;;20.87;18.80;;;;;;;;;;4991671;28;20243;-84
2023/12/08 01:37:51;;;;;;;20.93;18.73;;;;;;;;;;4950502;29;20243;-84
2023/12/08 01:40:17;;;;;;;20.37;18.07;;;;;;;;;;4953769;28;20222;-86
2023/12/08 01:42:44;;;;;;;22.37;18.13;;;;;;;;;;4988643;28;20226;-87
2023/12/08 01:45:12;;;;;;;22.00;19.70;;;;;;;;;;4988668;28;20229;-84
2023/12/08 01:47:38;;;;;;;22.33;19.60;;;;;;;;;;4970164;28;20236;-84
2023/12/08 01:50:06;;;;;;;25.10;21.60;;;;;;;;;;4986775;28;20309;-85
2023/12/08 01:52:31;;;;;;;22.50;19.93;;;;;;;;;;4982093;28;20227;-83
2023/12/08 01:55:01;;;;;;;24.80;20.53;;;;;;;;;;4953772;28;20305;-85
2023/12/08 01:57:32;;;;;;;22.57;19.33;;;;;;;;;;4975223;28;20226;-83
2023/12/08 02:00:00;;;;;;;23.83;21.27;;;;;;;;;;4990245;28;20218;-86
2023/12/08 02:02:25;;;;;;;25.20;21.60;;;;;;;;;;4969198;28;20244;-83
2023/12/08 02:04:53;;;;;;;23.20;20.57;;;;;;;;;;4979061;28;20274;-84
2023/12/08 02:07:22;;;;;;;23.33;21.03;;;;;;;;;;4956069;28;20242;-83
2023/12/08 02:09:53;;;;;;;25.10;21.53;;;;;;;;;;4960686;28;20242;-84
2023/12/08 02:12:21;;;;;;;26.17;23.40;;;;;;;;;;5010831;28;20294;-86
2023/12/08 02:14:52;;;;;;;27.93;22.20;;;;;;;;;;4955536;29;20227;-86
2023/12/08 02:17:25;;;;;;;24.93;22.37;;;;;;;;;;4979983;28;20726;-86
2023/12/08 02:19:53;;;;;;;26.93;23.57;;;;;;;;;;4957100;28;20232;-85
2023/12/08 02:22:24;;;;;;;24.40;21.93;;;;;;;;;;4959159;28;20226;-86
2023/12/08 02:24:52;;;;;;;27.00;24.03;;;;;;;;;;4939021;28;20294;-86
2023/12/08 02:27:17;;;;;;;26.47;23.43;;;;;;;;;;4989697;28;20596;-87
2023/12/08 02:29:45;;;;;;;27.63;24.10;;;;;;;;;;4958317;28;20226;-88
2023/12/08 02:32:30;;;;;;;29.43;24.20;;;;;;;;;;4950671;28;20218;-87
2023/12/08 02:35:01;;;;;;;26.27;23.43;;;;;;;;;;4926837;28;20219;-87
2023/12/08 02:37:33;;;;;;;27.07;24.20;;;;;;;;;;4952016;28;20232;-88
2023/12/08 02:40:01;;;;;;;29.30;26.00;;;;;;;;;;4956513;28;20286;-86
2023/12/08 02:42:31;;;;;;;30.57;26.00;;;;;;;;;;4941696;28;20247;-86
2023/12/08 02:44:59;;;;;;;34.20;25.30;;;;;;;;;;4923501;29;20229;-85
2023/12/08 02:47:25;;;;;;;28.03;24.83;;;;;;;;;;4963519;28;20229;-86
2023/12/08 02:49:52;;;;;;;30.17;26.87;;;;;;;;;;4967216;28;20321;-84
2023/12/08 02:52:20;;;;;;;30.90;27.57;;;;;;;;;;4957818;28;20230;-87
2023/12/08 02:54:48;;;;;;;29.73;26.53;;;;;;;;;;4967380;28;20215;-85
2023/12/08 02:57:17;;;;;;;31.47;27.03;;;;;;;;;;4958261;28;20230;-87
2023/12/08 02:59:45;;;;;;;34.47;27.90;;;;;;;;;;4957520;28;20218;-85
2023/12/08 03:02:10;;;;;;;32.70;27.03;;;;;;;;;;4924462;28;20238;-86
2023/12/08 03:04:36;;;;;;;32.97;27.80;;;;;;;;;;4966959;28;20706;-89
2023/12/08 03:07:03;;;;;;;33.83;28.13;;;;;;;;;;4953550;28;20703;-86
2023/12/08 03:09:29;;;;;;;33.03;28.30;;;;;;;;;;4965445;28;20223;-84
2023/12/08 03:12:00;;;;;;;36.93;28.23;;;;;;;;;;4950874;28;20272;-86
2023/12/08 03:14:28;;;;;;;34.53;29.33;;;;;;;;;;4955025;28;20226;-84
2023/12/08 03:16:56;;;;;;;32.83;28.07;;;;;;;;;;4972421;28;20225;-85
2023/12/08 03:19:21;;;;;;;33.37;29.70;;;;;;;;;;4965887;28;20223;-83
2023/12/08 03:21:47;;;;;;;37.43;29.50;;;;;;;;;;4931079;28;20213;-87
2023/12/08 03:24:17;;;;;;;32.90;27.63;;;;;;;;;;4947008;28;20223;-86
2023/12/08 03:26:43;;;;;;;30.57;27.27;;;;;;;;;;4966425;28;20226;-85
2023/12/08 03:29:10;;;;;;;32.37;28.83;;;;;;;;;;4970352;28;20251;-83
2023/12/08 03:31:38;;;;;;;31.50;28.10;;;;;;;;;;4937952;28;20210;-84
2023/12/08 03:34:06;;;;;;;32.50;28.57;;;;;;;;;;4938177;28;20297;-84
2023/12/08 03:36:39;;;;;;;31.93;28.53;;;;;;;;;;4954906;28;20237;-84
2023/12/08 03:39:07;;;;;;;31.63;26.03;;;;;;;;;;4938162;28;20363;-87
2023/12/08 03:41:34;;;;;;;31.53;28.27;;;;;;;;;;4961372;28;20214;-84
2023/12/08 03:44:02;;;;;;;32.00;28.20;;;;;;;;;;4971586;28;20591;-85
2023/12/08 03:46:28;;;;;;;32.83;26.50;;;;;;;;;;4959594;28;20222;-85
2023/12/08 03:48:55;;;;;;;29.80;26.70;;;;;;;;;;4955658;28;20697;-86
2023/12/08 03:51:21;;;;;;;30.30;26.77;;;;;;;;;;4966941;28;20215;-83
2023/12/08 03:53:49;;;;;;;31.00;27.80;;;;;;;;;;4971232;28;20713;-83
2023/12/08 03:56:15;;;;;;;29.73;26.63;;;;;;;;;;4968633;28;20254;-85
2023/12/08 04:02:30;;;;;;;29.27;26.27;;;;;;;;;;4974806;28;20216;-86
2023/12/08 04:04:58;;;;;;;29.60;26.33;;;;;;;;;;4974780;28;20233;-86
2023/12/08 04:07:26;;;;;;;31.83;27.07;;;;;;;;;;4984368;28;20281;-87
2023/12/08 04:09:54;;;;;;;30.73;27.57;;;;;;;;;;4937278;28;20270;-85
2023/12/08 04:12:20;;;;;;;29.00;25.97;;;;;;;;;;4953054;28;20219;-85
2023/12/08 04:14:46;;;;;;;29.20;26.13;;;;;;;;;;4973345;28;20273;-84
2023/12/08 04:17:11;;;;;;;29.93;26.47;;;;;;;;;;4940619;28;20229;-85
2023/12/08 04:19:42;;;;;;;29.20;26.30;;;;;;;;;;4965780;28;20218;-84
2023/12/08 04:22:10;;;;;;;29.00;26.10;;;;;;;;;;4967786;28;20712;-86
2023/12/08 04:24:38;;;;;;;30.73;26.60;;;;;;;;;;4953414;28;20217;-86
2023/12/08 04:27:05;;;;;;;29.63;25.97;;;;;;;;;;4958221;28;20280;-85
2023/12/08 04:29:33;;;;;;;27.13;24.17;;;;;;;;;;4957331;28;21082;-86
2023/12/08 04:32:01;;;;;;;27.67;24.80;;;;;;;;;;4973107;28;20214;-83
2023/12/08 04:34:29;;;;;;;38.43;34.17;;;;;;;;;;4945610;28;20224;-87
2023/12/08 04:36:59;;;;;;;25.83;23.13;;;;;;;;;;4945402;28;20604;-83
2023/12/08 04:39:24;;;;;;;26.13;23.40;;;;;;;;;;4967647;28;20654;-85
2023/12/08 04:41:50;;;;;;;26.43;23.60;;;;;;;;;;4955683;28;20221;-85
2023/12/08 04:44:16;;;;;;;25.27;22.73;;;;;;;;;;4970288;28;20218;-84
2023/12/08 04:46:43;;;;;;;24.67;22.27;;;;;;;;;;4976640;28;20225;-85
2023/12/08 04:49:11;;;;;;;25.13;21.83;;;;;;;;;;4967912;28;20365;-78
2023/12/08 04:51:42;;;;;;;24.50;21.57;;;;;;;;;;4957951;28;20269;-78
2023/12/08 04:54:08;;;;;;;24.60;22.00;;;;;;;;;;4933554;28;20210;-79
2023/12/08 04:56:33;;;;;;;23.87;21.30;;;;;;;;;;4938057;28;20291;-79
2023/12/08 04:58:59;;;;;;;24.13;21.57;;;;;;;;;;4968567;28;20734;-79
2023/12/08 05:01:25;;;;;;;22.37;20.17;;;;;;;;;;4972151;28;20229;-79
2023/12/08 05:03:51;;;;;;;22.37;20.07;;;;;;;;;;4983724;28;20226;-78
2023/12/08 05:06:17;;;;;;;21.17;19.03;;;;;;;;;;4954730;28;20224;-79
2023/12/08 05:08:43;;;;;;;21.90;19.60;;;;;;;;;;4967593;28;20218;-79
2023/12/08 05:11:08;;;;;;;19.90;17.93;;;;;;;;;;4939705;28;20254;-79
2023/12/08 05:13:34;;;;;;;19.00;16.97;;;;;;;;;;4943131;28;20245;-79
2023/12/08 05:15:59;;;;;;;19.60;17.50;;;;;;;;;;4945540;28;20303;-78
2023/12/08 05:18:25;;;;;;;18.73;16.93;;;;;;;;;;4979425;28;20229;-79
2023/12/08 05:20:51;;;;;;;17.87;16.17;;;;;;;;;;4969404;28;20279;-79
2023/12/08 05:23:18;;;;;;;19.30;16.63;;;;;;;;;;4935269;28;20901;-78
2023/12/08 05:25:46;;;;;;;18.07;16.37;;;;;;;;;;4963579;28;20214;-79
2023/12/08 05:28:11;;;;;;;17.93;16.13;;;;;;;;;;4967675;28;20214;-79
2023/12/08 05:30:37;;;;;;;19.80;16.43;;;;;;;;;;4937692;28;20281;-78
2023/12/08 05:33:05;;;;;;;17.53;15.73;;;;;;;;;;4965281;28;20229;-77
2023/12/08 05:35:33;;;;;;;15.60;13.73;;;;;;;;;;4982253;28;20221;-79
2023/12/08 05:37:58;;;;;;;16.57;14.87;;;;;;;;;;4965060;28;20304;-79
2023/12/08 05:40:24;;;;;;;16.90;15.30;;;;;;;;;;4953551;28;20702;-78
2023/12/08 05:42:52;;;;;;;15.90;14.20;;;;;;;;;;4956656;28;20229;-79
2023/12/08 05:45:17;;;;;;;17.13;15.37;;;;;;;;;;4958266;28;20215;-78
2023/12/08 05:47:44;;;;;;;15.60;14.00;;;;;;;;;;4953490;28;20218;-79
2023/12/08 05:50:10;;;;;;;16.73;15.03;;;;;;;;;;4960019;28;20222;-79
2023/12/08 05:52:35;;;;;;;16.83;15.23;;;;;;;;;;4969987;28;20589;-79
2023/12/08 05:55:01;;;;;;;16.67;14.93;;;;;;;;;;4966062;28;20289;-79
2023/12/08 05:57:27;;;;;;;16.57;14.77;;;;;;;;;;4953298;28;20230;-79
2023/12/08 05:59:53;;;;;;;16.90;15.23;;;;;;;;;;4968596;28;20361;-78
2023/12/08 06:02:18;;;;;;;15.67;14.10;;;;;;;;;;4970274;28;20510;-79
2023/12/08 06:04:44;;;;;;;16.53;14.90;;;;;;;;;;4942601;28;20229;-79
2023/12/08 06:07:10;;;;;;;15.43;14.03;;;;;;;;;;4967816;28;20232;-79
2023/12/08 06:09:36;;;;;;;16.63;15.03;;;;;;;;;;4946412;28;20245;-79
2023/12/08 06:12:02;;;;;;;16.03;14.53;;;;;;;;;;4961847;28;20218;-78
2023/12/08 06:14:27;;;;;;;15.90;14.47;;;;;;;;;;4946168;28;20230;-76
2023/12/08 06:16:53;;;;;;;14.97;13.40;;;;;;;;;;4957347;28;20226;-78
2023/12/08 06:19:19;;;;;;;15.67;14.00;;;;;;;;;;4957046;28;21021;-78
2023/12/08 06:21:47;;;;;;;15.10;13.63;;;;;;;;;;4954573;28;20217;-78
2023/12/08 06:24:12;;;;;;;15.17;13.57;;;;;;;;;;4968167;28;20219;-78
2023/12/08 06:26:38;;;;;;;15.43;13.80;;;;;;;;;;4948502;28;20224;-78
2023/12/08 06:29:04;;;;;;;15.10;13.60;;;;;;;;;;4969773;28;20222;-79
2023/12/08 06:31:32;;;;;;;15.67;14.17;;;;;;;;;;4974183;28;20230;-79
2023/12/08 06:33:58;;;;;;;15.83;13.63;;;;;;;;;;4945036;28;20214;-79
2023/12/08 06:36:26;;;;;;;14.40;13.00;;;;;;;;;;4982230;28;20238;-79
2023/12/08 06:38:52;;;;;;;14.37;12.87;;;;;;;;;;4952646;28;20260;-79
2023/12/08 06:41:18;;;;;;;14.47;13.07;;;;;;;;;;4966319;28;20313;-78
2023/12/08 06:43:43;;;;;;;14.27;12.97;;;;;;;;;;4956661;28;20261;-79
2023/12/08 06:46:12;;;;;;;15.17;13.67;;;;;;;;;;4950312;28;20229;-79
2023/12/08 06:48:39;;;;;;;14.70;13.20;;;;;;;;;;4984634;28;20234;-79
2023/12/08 06:51:06;;;;;;;16.07;13.87;;;;;;;;;;4966011;28;20241;-79
2023/12/08 06:53:31;;;;;;;13.03;11.87;;;;;;;;;;4933423;28;20234;-79
2023/12/08 06:55:57;;;;;;;14.50;13.10;;;;;;;;;;4986907;28;20226;-79
2023/12/08 06:58:22;;;;;;;13.40;12.17;;;;;;;;;;4941945;28;21752;-78
2023/12/08 07:00:48;;;;;;;13.80;12.50;;;;;;;;;;4970621;28;20230;-78
2023/12/08 07:03:13;;;;;;;13.57;12.33;;;;;;;;;;4941424;28;20294;-79
2023/12/08 07:05:39;;;;;;;13.77;12.57;;;;;;;;;;4959683;28;20230;-78
2023/12/08 07:08:04;;;;;;;15.50;13.90;;;;;;;;;;4954360;28;20234;-78
2023/12/08 07:10:30;;;;;;;14.20;12.90;;;;;;;;;;4976515;28;20234;-78
2023/12/08 07:12:56;;;;;;;13.83;12.53;;;;;;;;;;4984044;28;20225;-78
2023/12/08 07:15:21;;;;;;;13.50;12.17;;;;;;;;;;4970531;28;21093;-77
2023/12/08 07:17:47;;;;;;;13.40;12.10;;;;;;;;;;4939461;28;20241;-77
2023/12/08 07:20:12;;;;;;;14.10;12.50;;;;;;;;;;4963139;28;20222;-77
2023/12/08 07:22:38;;;;;;;12.67;11.57;;;;;;;;;;4945449;28;20230;-79
2023/12/08 07:25:07;;;;;;;17.50;13.10;;;;;;;;;;4951697;28;20218;-79
2023/12/08 07:27:32;;;;;;;14.30;12.90;;;;;;;;;;4941453;28;20237;-79
2023/12/08 07:29:58;;;;;;;15.03;13.50;;;;;;;;;;4961979;28;20223;-78
2023/12/08 07:32:24;;;;;;;16.97;13.03;;;;;;;;;;4965866;28;20249;-79
2023/12/08 07:34:50;;;;;;;13.37;12.07;;;;;;;;;;4968015;28;20221;-80
2023/12/08 07:37:16;;;;;;;15.20;13.73;;;;;;;;;;4968313;28;20245;-78
2023/12/08 07:39:41;;;;;;;13.27;12.03;;;;;;;;;;4954882;28;20253;-79
2023/12/08 07:42:07;;;;;;;13.67;12.40;;;;;;;;;;4967371;28;20223;-80
2023/12/08 07:44:34;;;;;;;21.33;19.37;;;;;;;;;;4946593;28;20225;-78
2023/12/08 07:47:00;;;;;;;14.50;13.00;;;;;;;;;;4967122;28;20360;-78
2023/12/08 07:49:28;;;;;;;13.47;12.27;;;;;;;;;;4949645;28;20228;-79
2023/12/08 07:51:53;;;;;;;14.33;13.13;;;;;;;;;;4962819;28;20353;-80
2023/12/08 07:54:19;;;;;;;13.73;12.40;;;;;;;;;;4947111;28;20222;-79
2023/12/08 07:56:47;;;;;;;17.83;13.23;;;;;;;;;;4947034;28;20272;-79
2023/12/08 07:59:13;;;;;;;15.10;13.33;;;;;;;;;;4953824;28;20245;-78
2023/12/08 08:01:38;;;;;;;13.70;12.30;;;;;;;;;;4937472;28;20715;-78
2023/12/08 08:04:04;;;;;;;13.57;12.37;;;;;;;;;;4952654;28;20217;-79
2023/12/08 08:06:29;;;;;;;14.63;12.97;;;;;;;;;;4951266;28;20345;-78
2023/12/08 08:08:56;;;;;;;14.43;13.03;;;;;;;;;;4978740;28;20238;-79
2023/12/08 08:11:21;;;;;;;14.00;12.63;;;;;;;;;;4965775;28;20663;-78
2023/12/08 08:13:47;;;;;;;13.77;12.43;;;;;;;;;;4936442;28;20223;-78
2023/12/08 08:16:14;;;;;;;14.57;13.17;;;;;;;;;;4947285;28;20230;-78
2023/12/08 08:18:40;;;;;;;13.53;12.33;;;;;;;;;;4980318;28;20257;-78
2023/12/08 08:21:10;;;;;;;17.60;13.60;;;;;;;;;;4962011;28;20217;-77
2023/12/08 08:23:36;;;;;;;15.47;13.83;;;;;;;;;;4944812;28;20225;-79
2023/12/08 08:26:04;;;;;;;15.63;13.53;;;;;;;;;;4965664;28;20211;-80
2023/12/08 08:28:29;;;;;;;13.83;12.43;;;;;;;;;;4949155;28;20253;-78
2023/12/08 08:30:55;;;;;;;13.80;12.47;;;;;;;;;;4946352;28;20227;-78
2023/12/08 08:33:23;;;;;;;14.83;12.17;;;;;;;;;;4963104;28;20226;-79
2023/12/08 08:35:49;;;;;;;14.23;12.73;;;;;;;;;;4943023;28;20759;-78
2023/12/08 08:38:15;;;;;;;14.67;12.87;;;;;;;;;;4964354;28;20237;-79
2023/12/08 08:40:43;;;;;;;15.20;13.80;;;;;;;;;;4965272;28;20314;-79
2023/12/08 08:43:08;;;;;;;14.53;13.10;;;;;;;;;;4958442;28;20222;-79
2023/12/08 08:45:38;;;;;;;13.20;12.03;;;;;;;;;;4946041;28;20764;-77
2023/12/08 08:48:04;;;;;;;15.23;13.63;;;;;;;;;;4958336;28;20603;-77
2023/12/08 08:50:30;;;;;;;13.13;11.93;;;;;;;;;;4963320;28;20223;-77
2023/12/08 08:52:55;;;;;;;14.70;13.20;;;;;;;;;;4961371;28;20232;-78
2023/12/08 08:55:21;;;;;;;15.47;13.90;;;;;;;;;;4972862;28;20234;-78
2023/12/08 08:57:50;;;;;;;14.57;13.17;;;;;;;;;;4961210;28;20226;-77
2023/12/08 09:00:18;;;;;;;15.13;13.53;;;;;;;;;;4934875;28;20733;-77
2023/12/08 09:02:51;;;;;;;14.33;12.93;;;;;;;;;;4958951;28;20226;-78
2023/12/08 09:05:17;;;;;;;14.37;12.87;;;;;;;;;;4954235;28;20298;-78
2023/12/08 09:07:43;;;;;;;14.53;13.03;;;;;;;;;;4940872;28;20229;-78
2023/12/08 09:10:12;;;;;;;14.97;13.40;;;;;;;;;;4943335;28;20210;-77
2023/12/08 09:12:39;;;;;;;14.17;12.77;;;;;;;;;;4955936;28;20237;-77
2023/12/08 09:15:05;;;;;;;14.43;13.03;;;;;;;;;;4968082;28;20210;-77
2023/12/08 09:17:31;;;;;;;13.70;12.43;;;;;;;;;;4974084;28;20222;-77
2023/12/08 09:19:56;;;;;;;13.97;12.67;;;;;;;;;;4985137;28;20282;-78
2023/12/08 09:22:27;;;;;;;14.37;12.97;;;;;;;;;;4956879;28;20248;-77
2023/12/08 09:24:52;;;;;;;14.57;13.10;;;;;;;;;;4955476;28;20227;-77
2023/12/08 09:27:20;;;;;;;14.63;13.20;;;;;;;;;;4969972;28;20234;-76
2023/12/08 09:29:45;;;;;;;14.83;13.33;;;;;;;;;;4981698;28;20223;-77
2023/12/08 09:32:11;;;;;;;14.90;13.50;;;;;;;;;;4966827;28;20218;-78
2023/12/08 09:34:38;;;;;;;15.53;13.60;;;;;;;;;;4943554;28;20231;-77
2023/12/08 09:37:04;;;;;;;15.50;14.00;;;;;;;;;;4967556;28;20249;-78
2023/12/08 09:39:32;;;;;;;14.73;13.23;;;;;;;;;;4929007;28;20226;-78
2023/12/08 09:41:59;;;;;;;15.03;13.60;;;;;;;;;;4960631;28;20289;-77
2023/12/08 09:44:24;;;;;;;14.90;13.37;;;;;;;;;;4951961;28;20223;-78
2023/12/08 09:46:54;;;;;;;16.43;14.77;;;;;;;;;;4947021;28;20231;-78
2023/12/08 09:49:27;;;;;;;15.37;13.90;;;;;;;;;;4982325;28;20254;-78
2023/12/08 09:51:53;;;;;;;17.20;15.40;;;;;;;;;;4941536;28;20321;-79
2023/12/08 09:54:19;;;;;;;17.33;15.50;;;;;;;;;;4982817;28;20258;-78
2023/12/08 09:56:46;;;;;;;15.40;13.93;;;;;;;;;;4938824;28;20678;-78
2023/12/08 09:59:13;;;;;;;16.60;15.07;;;;;;;;;;4960718;28;20222;-78
2023/12/08 10:01:39;;;;;;;18.20;16.37;;;;;;;;;;4965096;28;20264;-78
2023/12/08 10:04:05;;;;;;;16.80;15.20;;;;;;;;;;4959820;28;20250;-78
2023/12/08 10:06:30;;;;;;;17.23;15.53;;;;;;;;;;4941735;28;20218;-79
2023/12/08 10:08:59;;;;;;;16.67;15.20;;;;;;;;;;4965177;28;20716;-78
2023/12/08 10:11:24;;;;;;;18.53;16.77;;;;;;;;;;4966611;28;20222;-79
2023/12/08 10:13:52;;;;;;;19.63;16.70;;;;;;;;;;4980613;28;20250;-77
2023/12/08 10:16:22;;;;;;;17.33;15.70;;;;;;;;;;4939516;28;20286;-79
2023/12/08 10:18:48;;;;;;;18.77;16.83;;;;;;;;;;4949787;28;20239;-79
2023/12/08 10:21:15;;;;;;;18.90;17.10;;;;;;;;;;4962332;28;20222;-78
2023/12/08 10:23:42;;;;;;;18.60;16.90;;;;;;;;;;4985232;28;20256;-78
2023/12/08 10:26:08;;;;;;;18.70;16.67;;;;;;;;;;4962998;28;20222;-78
2023/12/08 10:28:36;;;;;;;20.47;17.07;;;;;;;;;;4965520;28;20230;-79
2023/12/08 10:31:02;;;;;;;19.40;17.60;;;;;;;;;;4949441;28;20640;-79
2023/12/08 10:33:29;;;;;;;19.33;17.50;;;;;;;;;;4964333;28;20314;-80
2023/12/08 10:35:55;;;;;;;19.97;17.63;;;;;;;;;;4961711;28;20237;-78
2023/12/08 10:38:21;;;;;;;18.30;16.50;;;;;;;;;;4938350;28;20324;-78
2023/12/08 10:40:52;;;;;;;18.90;17.00;;;;;;;;;;4939913;28;20228;-78
2023/12/08 10:43:22;;;;;;;17.97;16.10;;;;;;;;;;4953569;28;20222;-79
2023/12/08 10:45:55;;;;;;;19.17;17.33;;;;;;;;;;4945717;28;20753;-78
2023/12/08 10:48:21;;;;;;;19.30;17.43;;;;;;;;;;4960699;28;20301;-79
2023/12/08 10:50:52;;;;;;;18.40;16.43;;;;;;;;;;4944841;28;20223;-79
2023/12/08 10:53:21;;;;;;;19.27;17.27;;;;;;;;;;4945818;28;21006;-79
2023/12/08 10:55:56;;;;;;;17.43;15.77;;;;;;;;;;4934784;28;20218;-80
2023/12/08 10:58:22;;;;;;;18.50;15.90;;;;;;;;;;4963841;28;20715;-79
2023/12/08 11:00:51;;;;;;;17.33;15.53;;;;;;;;;;4965809;28;20276;-78
2023/12/08 11:03:19;;;;;;;17.90;16.27;;;;;;;;;;4978336;28;20761;-79
2023/12/08 11:05:48;;;;;;;16.90;15.23;;;;;;;;;;4937102;28;20417;-78
2023/12/08 11:08:16;;;;;;;18.50;16.10;;;;;;;;;;4954085;28;20230;-78
2023/12/08 11:10:44;;;;;;;17.50;15.77;;;;;;;;;;4959769;28;20312;-78
2023/12/08 11:13:25;;;;;;;18.33;16.53;;;;;;;;;;4957288;28;20837;-78
2023/12/08 11:16:47;;;;;;;18.77;16.43;;;;;;;;;;4933549;28;20688;-78
2023/12/08 11:19:16;;;;;;;18.83;16.83;;;;;;;;;;4941212;28;20265;-78
2023/12/08 11:21:41;;;;;;;18.93;17.07;;;;;;;;;;4966439;28;20257;-78
2023/12/08 11:24:08;;;;;;;19.07;17.07;;;;;;;;;;4951020;28;20230;-78
2023/12/08 11:26:41;;;;;;;20.53;18.37;;;;;;;;;;4955805;28;20696;-78
2023/12/08 11:29:15;;;;;;;18.77;16.97;;;;;;;;;;4969252;28;20223;-78
2023/12/08 11:32:02;;;;;;;18.57;16.83;;;;;;;;;;4968194;28;20293;-78
2023/12/08 11:34:45;;;;;;;17.33;15.73;;;;;;;;;;4955286;28;20310;-77
2023/12/08 11:37:11;;;;;;;18.67;16.87;;;;;;;;;;4961286;28;20325;-79
2023/12/08 11:39:42;;;;;;;19.10;17.07;;;;;;;;;;4957877;28;20236;-78
2023/12/08 11:42:12;;;;;;;18.83;17.13;;;;;;;;;;4938463;28;20222;-77
2023/12/08 11:44:41;;;;;;;19.73;17.83;;;;;;;;;;4949115;28;20285;-78
2023/12/08 11:47:09;;;;;;;19.53;17.57;;;;;;;;;;4965997;28;20234;-79
2023/12/08 11:49:38;;;;;;;19.37;17.50;;;;;;;;;;4983785;28;20214;-79
2023/12/08 11:52:10;;;;;;;18.93;17.23;;;;;;;;;;4950783;28;20211;-84
2023/12/08 11:55:03;;;;;;;19.40;17.60;;;;;;;;;;4943092;28;20233;-84
2023/12/08 11:57:29;;;;;;;17.73;16.03;;;;;;;;;;4982771;28;20767;-84
2023/12/08 11:59:55;;;;;;;17.80;16.20;;;;;;;;;;4973355;28;20240;-83
2023/12/08 12:02:23;;;;;;;18.97;17.17;;;;;;;;;;4957713;28;20222;-82
2023/12/08 12:04:49;;;;;;;17.93;16.03;;;;;;;;;;4957083;28;20226;-83
2023/12/08 12:07:17;;;;;;;18.87;16.97;;;;;;;;;;4961868;28;20221;-84
2023/12/08 12:09:42;;;;;;;17.97;16.23;;;;;;;;;;4936740;28;20258;-84
2023/12/08 12:12:31;;;;;;;18.93;16.93;;;;;;;;;;4937283;28;20226;-83
2023/12/08 12:14:59;;;;;;;17.97;16.33;;;;;;;;;;4955437;28;20305;-83
2023/12/08 12:17:25;;;;;;;18.20;16.60;;;;;;;;;;4968935;28;20320;-83
2023/12/08 12:19:51;;;;;;;18.93;17.00;;;;;;;;;;4941001;28;20269;-85
2023/12/08 12:22:17;;;;;;;19.03;17.23;;;;;;;;;;4942817;28;20268;-85
2023/12/08 12:24:43;;;;;;;18.00;16.20;;;;;;;;;;4970586;28;20230;-83
2023/12/08 12:27:12;;;;;;;18.20;16.47;;;;;;;;;;4932975;28;20679;-84
2023/12/08 12:29:42;;;;;;;18.83;16.90;;;;;;;;;;4940284;28;20241;-83
2023/12/08 12:32:08;;;;;;;18.60;16.80;;;;;;;;;;4965379;28;20735;-83
2023/12/08 12:34:36;;;;;;;17.63;15.83;;;;;;;;;;4967797;28;20222;-83
2023/12/08 12:37:02;;;;;;;19.27;17.20;;;;;;;;;;4960408;28;20648;-83
2023/12/08 12:39:30;;;;;;;18.13;16.23;;;;;;;;;;4961529;28;20218;-84
2023/12/08 12:42:02;;;;;;;17.27;15.50;;;;;;;;;;4941555;28;20252;-86
2023/12/08 12:44:41;;;;;;;17.43;15.70;;;;;;;;;;4953730;28;20358;-86
2023/12/08 12:47:09;;;;;;;17.07;15.57;;;;;;;;;;4964885;28;20224;-86
2023/12/08 12:49:36;;;;;;;16.80;15.20;;;;;;;;;;4946055;28;20620;-84
2023/12/08 12:52:03;;;;;;;18.73;16.80;;;;;;;;;;4944996;28;20241;-84
2023/12/08 12:54:34;;;;;;;16.63;15.03;;;;;;;;;;4974948;28;20230;-84
2023/12/08 12:57:00;;;;;;;16.27;14.67;;;;;;;;;;4942969;28;20641;-85
2023/12/08 12:59:25;;;;;;;16.63;15.03;;;;;;;;;;4970084;28;20222;-84
2023/12/08 13:01:51;;;;;;;16.67;14.97;;;;;;;;;;4977097;28;20657;-84
2023/12/08 13:04:17;;;;;;;17.63;15.83;;;;;;;;;;4968373;28;20324;-81
2023/12/08 13:06:44;;;;;;;15.77;14.27;;;;;;;;;;4941215;28;20229;-84
2023/12/08 13:09:12;;;;;;;18.30;16.40;;;;;;;;;;4939553;28;20222;-83
2023/12/08 13:11:40;;;;;;;16.63;14.93;;;;;;;;;;4956655;28;20235;-81
2023/12/08 13:14:06;;;;;;;17.70;15.80;;;;;;;;;;4976111;28;20250;-84
2023/12/08 13:16:33;;;;;;;16.37;14.80;;;;;;;;;;4976417;28;20230;-85
2023/12/08 13:19:01;;;;;;;17.77;16.10;;;;;;;;;;4994659;28;20230;-86
2023/12/08 13:21:29;;;;;;;16.57;15.07;;;;;;;;;;4951276;28;20241;-84
2023/12/08 13:23:54;;;;;;;17.43;15.73;;;;;;;;;;4963255;28;20256;-83
2023/12/08 13:26:22;;;;;;;17.20;15.47;;;;;;;;;;4967210;28;20226;-83
2023/12/08 13:28:50;;;;;;;18.00;16.00;;;;;;;;;;4939941;28;20221;-83
2023/12/08 13:31:18;;;;;;;16.17;14.67;;;;;;;;;;4948635;28;20226;-83
2023/12/08 13:33:46;;;;;;;18.03;16.37;;;;;;;;;;4971539;28;20222;-85
2023/12/08 13:36:15;;;;;;;18.03;16.23;;;;;;;;;;4948429;28;20219;-84
2023/12/08 13:38:41;;;;;;;18.97;16.20;;;;;;;;;;4950151;28;20262;-84
2023/12/08 13:41:11;;;;;;;17.67;15.73;;;;;;;;;;4955738;28;20283;-84
2023/12/08 13:43:38;;;;;;;17.27;15.63;;;;;;;;;;4947550;28;20291;-84
2023/12/08 13:46:06;;;;;;;16.27;14.77;;;;;;;;;;4976508;28;20227;-84
2023/12/08 13:48:32;;;;;;;16.97;15.37;;;;;;;;;;4938684;28;20225;-85
2023/12/08 13:51:01;;;;;;;17.73;15.97;;;;;;;;;;4967997;28;20238;-84
2023/12/08 13:53:30;;;;;;;17.03;15.47;;;;;;;;;;4937303;28;20231;-84
2023/12/08 13:55:59;;;;;;;17.27;15.57;;;;;;;;;;4959004;28;20230;-85
2023/12/08 13:58:25;;;;;;;16.83;15.27;;;;;;;;;;4960282;28;20234;-85
2023/12/08 14:00:51;;;;;;;17.60;15.77;;;;;;;;;;4938908;28;20229;-85
2023/12/08 14:03:19;;;;;;;17.00;15.37;;;;;;;;;;4965056;28;20223;-84
2023/12/08 14:05:47;;;;;;;17.57;15.87;;;;;;;;;;4958448;28;20236;-84
2023/12/08 14:08:14;;;;;;;17.50;15.93;;;;;;;;;;4961953;28;20226;-84
2023/12/08 14:10:40;;;;;;;18.37;16.73;;;;;;;;;;4952260;28;20230;-84
2023/12/08 14:13:08;;;;;;;17.63;15.93;;;;;;;;;;4934799;28;20227;-85
2023/12/08 14:15:34;;;;;;;16.60;15.10;;;;;;;;;;4928474;28;20214;-83
2023/12/08 14:18:00;;;;;;;18.83;16.90;;;;;;;;;;4975823;28;20261;-85
2023/12/08 14:20:25;;;;;;;24.77;22.63;;;;;;;;;;4973011;28;20232;-84
2023/12/08 14:22:51;;;;;;;19.57;17.77;;;;;;;;;;4950205;28;20227;-83